createdAt,value
2019-05-20T00:01:26.200Z,43.67
2019-05-20T00:03:52.840Z,41.97
2019-05-20T00:06:19.543Z,41.57
2019-05-20T00:08:46.184Z,41.23
2019-05-20T00:11:12.919Z,40.23
2019-05-20T00:13:39.982Z,39.83
2019-05-20T00:16:06.798Z,37.73
2019-05-20T00:18:33.435Z,43.03
2019-05-20T00:21:00.784Z,35.70
2019-05-20T00:23:27.469Z,39.80
2019-05-20T00:25:54.216Z,35.13
2019-05-20T00:28:20.932Z,34.47
2019-05-20T00:30:47.825Z,30.40
2019-05-20T00:33:14.552Z,32.10
2019-05-20T00:35:41.283Z,31.17
2019-05-20T00:38:07.987Z,31.53
2019-05-20T00:40:34.710Z,30.20
2019-05-20T00:43:01.614Z,29.87
2019-05-20T00:45:28.234Z,29.07
2019-05-20T00:47:54.838Z,29.93
2019-05-20T00:50:21.557Z,33.60
2019-05-20T00:52:49.468Z,28.33
2019-05-20T00:55:25.428Z,27.97
2019-05-20T00:57:52.135Z,28.57
2019-05-20T01:00:19.042Z,27.97
2019-05-20T01:02:56.529Z,28.67
2019-05-20T01:05:14.403Z,27.70
2019-05-20T01:07:41.036Z,30.00
2019-05-20T01:10:07.799Z,31.37
2019-05-20T01:12:34.774Z,31.27
2019-05-20T01:15:01.398Z,27.93
2019-05-20T01:17:28.318Z,29.53
2019-05-20T01:19:55.059Z,29.93
2019-05-20T01:22:21.759Z,31.70
2019-05-20T01:24:48.477Z,28.37
2019-05-20T01:27:15.094Z,28.27
2019-05-20T01:29:41.811Z,28.00
2019-05-20T01:32:08.536Z,26.07
2019-05-20T01:34:36.703Z,25.27
2019-05-20T01:37:03.337Z,24.40
2019-05-20T01:39:30.079Z,26.10
2019-05-20T01:41:58.847Z,23.30
2019-05-20T01:44:25.463Z,24.73
2019-05-20T01:46:52.144Z,23.70
2019-05-20T01:49:18.811Z,24.17
2019-05-20T01:51:45.450Z,22.23
2019-05-20T01:54:12.090Z,23.17
2019-05-20T01:56:38.807Z,20.53
2019-05-20T01:59:05.939Z,21.33
2019-05-20T02:01:32.574Z,19.07
2019-05-20T02:03:59.289Z,21.97
2019-05-20T02:06:25.957Z,20.57
2019-05-20T02:08:53.175Z,21.93
2019-05-20T02:11:19.805Z,20.93
2019-05-20T02:13:57.376Z,22.80
2019-05-20T02:16:26.741Z,21.03
2019-05-20T02:18:53.673Z,21.83
2019-05-20T02:21:20.489Z,21.17
2019-05-20T02:23:47.507Z,21.40
2019-05-20T02:26:14.235Z,23.00
2019-05-20T02:28:40.999Z,24.90
2019-05-20T02:31:07.682Z,24.40
2019-05-20T02:33:49.851Z,24.60
2019-05-20T02:36:03.222Z,23.90
2019-05-20T02:38:29.884Z,26.30
2019-05-20T02:40:56.530Z,26.47
2019-05-20T02:43:23.220Z,25.30
2019-05-20T02:45:49.846Z,25.83
2019-05-20T02:48:16.667Z,27.00
2019-05-20T02:50:43.289Z,25.17
2019-05-20T02:53:09.948Z,26.00
2019-05-20T02:55:36.702Z,27.03
2019-05-20T02:58:03.369Z,28.73
2019-05-20T03:00:30.173Z,27.37
2019-05-20T03:02:56.800Z,27.97
2019-05-20T03:05:23.550Z,26.53
2019-05-20T03:07:50.385Z,25.73
2019-05-20T03:10:17.347Z,25.13
2019-05-20T03:12:44.014Z,26.20
2019-05-20T03:15:10.974Z,24.03
2019-05-20T03:17:37.894Z,25.83
2019-05-20T03:20:05.364Z,22.63
2019-05-20T03:22:32.393Z,25.50
2019-05-20T03:24:59.158Z,25.23
2019-05-20T03:27:26.030Z,22.17
2019-05-20T03:29:52.840Z,23.93
2019-05-20T03:32:19.669Z,23.57
2019-05-20T03:34:54.250Z,23.03
2019-05-20T03:37:14.779Z,22.93
2019-05-20T03:39:41.515Z,25.00
2019-05-20T03:42:08.721Z,24.93
2019-05-20T03:44:35.357Z,22.57
2019-05-20T03:47:02.982Z,26.10
2019-05-20T03:49:29.642Z,26.87
2019-05-20T03:51:56.294Z,26.80
2019-05-20T03:54:22.891Z,26.10
2019-05-20T03:56:49.531Z,26.57
2019-05-20T03:59:16.447Z,25.53
2019-05-20T04:01:43.251Z,26.47
2019-05-20T04:04:09.870Z,26.57
2019-05-20T04:06:36.512Z,24.53
2019-05-20T04:09:05.450Z,25.87
2019-05-20T04:11:32.332Z,26.27
2019-05-20T04:13:59.032Z,24.90
2019-05-20T04:16:25.860Z,25.57
2019-05-20T04:18:54.317Z,25.43
2019-05-20T04:21:22.113Z,24.00
2019-05-20T04:23:48.985Z,23.60
2019-05-20T04:26:16.566Z,23.93
2019-05-20T04:28:43.445Z,26.17
2019-05-20T04:31:10.242Z,24.60
2019-05-20T04:33:37.092Z,26.93
2019-05-20T04:36:03.921Z,25.70
2019-05-20T04:38:30.622Z,25.10
2019-05-20T04:40:57.333Z,25.63
2019-05-20T04:43:24.578Z,24.67
2019-05-20T04:45:51.438Z,25.27
2019-05-20T04:48:18.157Z,24.07
2019-05-20T04:50:44.821Z,24.90
2019-05-20T04:53:11.473Z,25.87
2019-05-20T04:55:41.673Z,24.50
2019-05-20T04:58:08.435Z,25.37
2019-05-20T05:00:52.272Z,24.13
2019-05-20T05:03:19.293Z,23.70
2019-05-20T05:05:47.279Z,21.20
2019-05-20T05:08:14.086Z,23.53
2019-05-20T05:10:41.113Z,21.03
2019-05-20T05:13:07.927Z,23.53
2019-05-20T05:15:35.001Z,23.43
2019-05-20T05:18:01.817Z,20.13
2019-05-20T05:20:29.905Z,23.20
2019-05-20T05:22:56.878Z,21.47
2019-05-20T05:25:23.635Z,20.40
2019-05-20T05:27:50.701Z,20.30
2019-05-20T05:30:18.920Z,21.13
2019-05-20T05:32:45.638Z,22.73
2019-05-20T05:35:13.987Z,21.33
2019-05-20T05:37:40.720Z,22.07
2019-05-20T05:40:09.682Z,22.40
2019-05-20T05:42:36.823Z,20.50
2019-05-20T05:45:05.968Z,18.00
2019-05-20T05:47:32.557Z,16.50
2019-05-20T05:50:00.149Z,15.80
2019-05-20T05:52:26.865Z,15.80
2019-05-20T05:54:53.467Z,15.53
2019-05-20T05:57:20.086Z,16.30
2019-05-20T05:59:46.869Z,15.37
2019-05-20T06:02:13.659Z,17.67
2019-05-20T06:04:40.303Z,16.40
2019-05-20T06:07:06.960Z,18.67
2019-05-20T06:09:33.589Z,18.10
2019-05-20T06:12:00.245Z,20.03
2019-05-20T06:14:27.045Z,19.30
2019-05-20T06:16:53.634Z,19.80
2019-05-20T06:19:20.246Z,21.93
2019-05-20T06:21:46.910Z,19.73
2019-05-20T06:24:13.665Z,16.93
2019-05-20T06:26:40.789Z,18.10
2019-05-20T06:29:07.433Z,18.90
2019-05-20T06:31:34.267Z,18.27
2019-05-20T06:34:01.136Z,18.97
2019-05-20T06:36:29.023Z,19.50
2019-05-20T06:39:11.801Z,18.13
2019-05-20T06:41:38.996Z,17.73
2019-05-20T06:44:06.270Z,20.00
2019-05-20T06:46:32.997Z,17.37
2019-05-20T06:48:59.770Z,17.43
2019-05-20T06:51:26.555Z,18.97
2019-05-20T06:53:53.346Z,19.70
2019-05-20T06:56:20.065Z,19.73
2019-05-20T06:58:46.758Z,18.10
2019-05-20T07:01:13.583Z,20.03
2019-05-20T07:03:41.543Z,20.50
2019-05-20T07:06:08.263Z,20.53
2019-05-20T07:08:34.887Z,19.57
2019-05-20T07:11:07.969Z,20.40
2019-05-20T07:13:34.615Z,19.20
2019-05-20T07:16:01.559Z,20.20
2019-05-20T07:18:28.189Z,19.00
2019-05-20T07:20:55.138Z,20.30
2019-05-20T07:23:21.760Z,19.67
2019-05-20T07:25:48.456Z,21.50
2019-05-20T07:28:15.083Z,21.93
2019-05-20T07:30:43.014Z,20.27
2019-05-20T07:33:10.943Z,20.27
2019-05-20T07:35:37.696Z,20.63
2019-05-20T07:38:04.382Z,19.90
2019-05-20T07:40:32.513Z,21.73
2019-05-20T07:42:59.388Z,20.63
2019-05-20T07:45:26.689Z,22.77
2019-05-20T07:47:53.498Z,21.87
2019-05-20T07:50:21.056Z,20.43
2019-05-20T07:52:49.066Z,21.40
2019-05-20T07:55:15.978Z,23.30
2019-05-20T07:57:46.898Z,21.83
2019-05-20T08:00:14.798Z,23.77
2019-05-20T08:02:41.652Z,23.13
2019-05-20T08:05:08.872Z,25.47
2019-05-20T08:07:51.169Z,24.37
2019-05-20T08:10:07.619Z,25.87
2019-05-20T08:12:34.429Z,25.43
2019-05-20T08:15:01.751Z,26.17
2019-05-20T08:17:28.656Z,25.50
2019-05-20T08:19:55.324Z,26.27
2019-05-20T08:22:21.939Z,24.60
2019-05-20T08:24:48.685Z,25.73
2019-05-20T08:27:15.405Z,24.57
2019-05-20T08:29:42.169Z,24.87
2019-05-20T08:32:09.111Z,25.27
2019-05-20T08:34:36.359Z,23.47
2019-05-20T08:37:03.832Z,22.37
2019-05-20T08:39:30.578Z,23.00
2019-05-20T08:41:57.315Z,22.00
2019-05-20T08:44:24.020Z,23.60
2019-05-20T08:46:50.623Z,21.37
2019-05-20T08:49:17.452Z,21.03
2019-05-20T08:51:44.101Z,22.97
2019-05-20T08:54:10.728Z,23.37
2019-05-20T08:56:37.387Z,22.03
2019-05-20T08:59:04.179Z,22.30
2019-05-20T09:01:31.237Z,19.87
2019-05-20T09:03:58.077Z,22.07
2019-05-20T09:06:24.871Z,22.20
2019-05-20T09:08:51.567Z,21.03
2019-05-20T09:11:18.279Z,23.13
2019-05-20T09:13:45.249Z,22.63
2019-05-20T09:16:12.032Z,22.23
2019-05-20T09:18:38.795Z,22.13
2019-05-20T09:21:07.593Z,21.90
2019-05-20T09:23:34.381Z,19.60
2019-05-20T09:26:01.099Z,22.77
2019-05-20T09:28:27.876Z,21.33
2019-05-20T09:30:54.854Z,19.67
2019-05-20T09:33:21.833Z,20.63
2019-05-20T09:35:48.875Z,22.10
2019-05-20T09:38:20.712Z,20.67
2019-05-20T09:40:46.834Z,21.07
2019-05-20T09:43:13.674Z,22.33
2019-05-20T09:45:41.520Z,23.43
2019-05-20T09:48:08.787Z,28.07
2019-05-20T09:50:35.554Z,27.50
2019-05-20T09:53:06.910Z,26.37
2019-05-20T09:55:31.715Z,27.27
2019-05-20T09:57:58.407Z,28.67
2019-05-20T10:00:25.353Z,28.83
2019-05-20T10:02:52.054Z,28.10
2019-05-20T10:05:19.860Z,24.13
2019-05-20T10:07:46.745Z,20.93
2019-05-20T10:10:13.877Z,20.70
2019-05-20T10:12:46.440Z,20.57
2019-05-20T10:15:13.222Z,19.63
2019-05-20T10:17:40.111Z,22.70
2019-05-20T10:20:07.126Z,22.23
2019-05-20T10:22:34.133Z,20.73
2019-05-20T10:25:00.786Z,21.87
2019-05-20T10:27:27.554Z,24.57
2019-05-20T10:29:54.463Z,21.80
2019-05-20T10:32:21.223Z,21.83
2019-05-20T10:34:47.983Z,23.13
2019-05-20T10:37:14.672Z,24.80
2019-05-20T10:39:41.369Z,24.93
2019-05-20T10:42:08.247Z,26.43
2019-05-20T10:44:36.815Z,26.03
2019-05-20T10:47:03.607Z,25.67
2019-05-20T10:49:30.481Z,25.03
2019-05-20T10:51:57.265Z,23.13
2019-05-20T10:54:23.884Z,23.70
2019-05-20T10:56:50.586Z,22.77
2019-05-20T10:59:17.423Z,24.60
2019-05-20T11:01:44.034Z,25.03
2019-05-20T11:04:10.658Z,24.43
2019-05-20T11:06:37.322Z,25.53
2019-05-20T11:09:13.679Z,26.60
2019-05-20T11:11:33.323Z,25.83
2019-05-20T11:14:07.356Z,25.20
2019-05-20T11:16:33.993Z,27.57
2019-05-20T11:19:00.964Z,26.20
2019-05-20T11:21:27.682Z,28.50
2019-05-20T11:23:56.042Z,27.73
2019-05-20T11:26:22.627Z,27.83
2019-05-20T11:28:49.278Z,25.37
2019-05-20T11:31:16.039Z,27.47
2019-05-20T11:33:42.885Z,25.53
2019-05-20T11:36:09.728Z,27.40
2019-05-20T11:38:36.367Z,24.60
2019-05-20T11:41:03.197Z,26.63
2019-05-20T11:43:30.139Z,30.30
2019-05-20T11:45:56.848Z,29.03
2019-05-20T11:48:23.547Z,33.53
2019-05-20T11:50:50.300Z,35.70
2019-05-20T11:53:17.287Z,36.83
2019-05-20T11:55:43.889Z,39.00
2019-05-20T11:58:15.654Z,41.53
2019-05-20T12:00:39.165Z,40.83
2019-05-20T12:03:05.859Z,45.10
2019-05-20T12:05:33.599Z,47.03
2019-05-20T12:08:00.266Z,48.37
2019-05-20T12:10:26.947Z,43.10
2019-05-20T12:12:53.624Z,42.97
2019-05-20T12:15:20.436Z,43.23
2019-05-20T12:17:47.069Z,43.33
2019-05-20T12:20:14.497Z,44.33
2019-05-20T12:22:41.243Z,44.30
2019-05-20T12:25:08.203Z,45.63
2019-05-20T12:27:38.022Z,46.37
2019-05-20T12:30:05.468Z,45.03
2019-05-20T12:32:32.113Z,43.47
2019-05-20T12:34:58.924Z,46.17
2019-05-20T12:37:25.580Z,47.27
2019-05-20T12:40:05.923Z,47.53
2019-05-20T12:42:20.753Z,50.17
2019-05-20T12:44:47.615Z,53.37
2019-05-20T12:47:14.406Z,50.93
2019-05-20T12:49:41.256Z,48.93
2019-05-20T12:52:08.082Z,50.60
2019-05-20T12:54:35.166Z,48.73
2019-05-20T12:57:01.807Z,48.83
2019-05-20T12:59:28.459Z,49.10
2019-05-20T13:01:55.481Z,48.67
2019-05-20T13:04:22.273Z,47.90
2019-05-20T13:06:49.138Z,49.73
2019-05-20T13:09:15.734Z,48.03
2019-05-20T13:11:42.479Z,50.80
2019-05-20T13:14:09.334Z,48.27
2019-05-20T13:16:36.147Z,52.03
2019-05-20T13:19:03.782Z,46.83
2019-05-20T13:21:30.510Z,46.33
2019-05-20T13:23:57.912Z,48.77
2019-05-20T13:26:24.730Z,47.67
2019-05-20T13:28:51.487Z,45.23
2019-05-20T13:31:18.430Z,43.60
2019-05-20T13:33:45.227Z,37.97
2019-05-20T13:36:12.184Z,36.30
2019-05-20T13:38:38.806Z,32.20
2019-05-20T13:41:05.528Z,32.17
2019-05-20T13:43:32.352Z,33.97
2019-05-20T13:46:09.692Z,35.00
2019-05-20T13:48:36.436Z,37.30
2019-05-20T13:51:03.875Z,40.33
2019-05-20T13:53:31.759Z,39.80
2019-05-20T13:55:58.477Z,38.70
2019-05-20T13:58:25.201Z,40.87
2019-05-20T14:00:52.244Z,38.20
2019-05-20T14:03:18.886Z,36.63
2019-05-20T14:05:45.488Z,36.30
2019-05-20T14:08:12.360Z,35.50
2019-05-20T14:10:40.310Z,36.43
2019-05-20T14:13:06.917Z,36.03
2019-05-20T14:15:33.810Z,32.43
2019-05-20T14:18:00.852Z,34.60
2019-05-20T14:20:27.727Z,48.47
2019-05-20T14:22:54.483Z,54.17
2019-05-20T14:25:21.358Z,60.30
2019-05-20T14:27:48.096Z,64.60
2019-05-20T14:30:14.836Z,64.07
2019-05-20T14:32:41.613Z,61.03
2019-05-20T14:35:09.122Z,59.67
2019-05-20T14:37:35.874Z,52.93
2019-05-20T14:40:05.796Z,52.47
2019-05-20T14:42:32.551Z,48.27
2019-05-20T14:45:01.781Z,47.60
2019-05-20T14:47:28.568Z,49.20
2019-05-20T14:49:55.312Z,52.83
2019-05-20T14:52:21.980Z,54.47
2019-05-20T14:54:49.088Z,56.10
2019-05-20T14:57:17.714Z,55.87
2019-05-20T14:59:44.582Z,53.87
2019-05-20T15:02:11.593Z,54.40
2019-05-20T15:04:38.450Z,54.27
2019-05-20T15:07:05.226Z,55.40
2019-05-20T15:09:31.968Z,56.93
2019-05-20T15:11:58.688Z,52.80
2019-05-20T15:14:25.660Z,61.70
2019-05-20T15:16:52.880Z,55.47
2019-05-20T15:19:20.651Z,57.27
2019-05-20T15:21:47.546Z,60.40
2019-05-20T15:24:14.348Z,59.80
2019-05-20T15:26:41.029Z,60.00
2019-05-20T15:29:07.730Z,58.47
2019-05-20T15:31:34.559Z,54.57
2019-05-20T15:34:01.199Z,57.77
2019-05-20T15:36:28.136Z,58.77
2019-05-20T15:38:54.793Z,57.53
2019-05-20T15:41:21.458Z,60.10
2019-05-20T15:43:48.121Z,65.90
2019-05-20T15:46:14.834Z,68.47
2019-05-20T15:48:41.572Z,64.53
2019-05-20T15:51:08.564Z,63.57
2019-05-20T15:53:35.295Z,70.90
2019-05-20T15:56:01.958Z,64.10
2019-05-20T15:58:28.703Z,69.63
2019-05-20T16:00:55.484Z,67.73
2019-05-20T16:03:22.390Z,72.83
2019-05-20T16:05:49.132Z,78.43
2019-05-20T16:08:15.871Z,78.67
2019-05-20T16:10:42.667Z,73.73
2019-05-20T16:13:09.537Z,61.80
2019-05-20T16:15:36.373Z,53.10
2019-05-20T16:18:03.405Z,47.03
2019-05-20T16:20:31.193Z,44.17
2019-05-20T16:22:58.347Z,44.20
2019-05-20T16:25:25.089Z,43.13
2019-05-20T16:27:51.781Z,44.07
2019-05-20T16:30:18.972Z,39.93
2019-05-20T16:32:45.612Z,39.80
2019-05-20T16:35:12.996Z,40.33
2019-05-20T16:37:39.732Z,41.27
2019-05-20T16:40:08.396Z,41.87
2019-05-20T16:42:37.336Z,49.50
2019-05-20T16:45:06.867Z,56.90
2019-05-20T16:47:33.594Z,64.50
2019-05-20T16:50:00.447Z,63.63
2019-05-20T16:52:28.928Z,52.57
2019-05-20T16:54:56.601Z,49.33
2019-05-20T16:57:23.475Z,47.47
2019-05-20T16:59:50.667Z,45.73
2019-05-20T17:02:17.440Z,44.77
2019-05-20T17:04:44.252Z,44.63
2019-05-20T17:07:11.311Z,49.23
2019-05-20T17:09:38.039Z,50.33
2019-05-20T17:12:05.030Z,49.00
2019-05-20T17:14:32.211Z,57.10
2019-05-20T17:16:58.888Z,63.17
2019-05-20T17:19:25.743Z,66.70
2019-05-20T17:21:52.367Z,64.13
2019-05-20T17:24:19.471Z,59.73
2019-05-20T17:26:46.127Z,63.63
2019-05-20T17:29:12.952Z,58.63
2019-05-20T17:31:40.677Z,67.53
2019-05-20T17:34:07.433Z,67.47
2019-05-20T17:36:34.177Z,69.67
2019-05-20T17:39:01.092Z,78.50
2019-05-20T17:41:28.069Z,82.83
2019-05-20T17:43:54.889Z,83.40
2019-05-20T17:46:22.333Z,93.30
2019-05-20T17:48:48.969Z,100.80
2019-05-20T17:51:15.765Z,98.87
2019-05-20T17:53:42.735Z,99.60
2019-05-20T17:56:09.825Z,98.70
2019-05-20T17:58:37.498Z,102.43
2019-05-20T18:01:14.739Z,99.70
2019-05-20T18:03:32.995Z,92.57
2019-05-20T18:05:59.983Z,94.93
2019-05-20T18:08:28.617Z,91.73
2019-05-20T18:10:55.415Z,89.90
2019-05-20T18:13:22.026Z,88.70
2019-05-20T18:15:48.779Z,92.63
2019-05-20T18:18:15.391Z,90.43
2019-05-20T18:20:42.132Z,83.30
2019-05-20T18:23:08.812Z,86.90
2019-05-20T18:25:35.628Z,83.67
2019-05-20T18:28:05.161Z,78.60
2019-05-20T18:30:32.388Z,75.30
2019-05-20T18:32:59.101Z,74.97
2019-05-20T18:35:25.991Z,73.10
2019-05-20T18:37:52.995Z,71.63
2019-05-20T18:40:20.161Z,68.70
2019-05-20T18:42:46.804Z,72.97
2019-05-20T18:45:13.663Z,70.87
2019-05-20T18:47:41.328Z,74.43
2019-05-20T18:50:09.040Z,71.40
2019-05-20T18:52:35.665Z,70.70
2019-05-20T18:55:03.451Z,72.03
2019-05-20T18:57:30.198Z,69.07
2019-05-20T18:59:57.216Z,69.30
2019-05-20T19:02:24.546Z,71.20
2019-05-20T19:04:51.229Z,69.43
2019-05-20T19:07:18.027Z,71.97
2019-05-20T19:09:44.880Z,74.27
2019-05-20T19:12:12.919Z,71.60
2019-05-20T19:14:39.870Z,75.47
2019-05-20T19:17:06.789Z,79.43
2019-05-20T19:19:33.623Z,79.13
2019-05-20T19:22:00.419Z,81.73
2019-05-20T19:24:27.374Z,86.67
2019-05-20T19:26:54.858Z,80.03
2019-05-20T19:29:21.691Z,73.67
2019-05-20T19:32:00.866Z,76.40
2019-05-20T19:34:17.189Z,80.07
2019-05-20T19:36:43.836Z,78.23
2019-05-20T19:39:10.707Z,75.53
2019-05-20T19:41:39.366Z,76.40
2019-05-20T19:44:06.162Z,80.90
2019-05-20T19:46:32.935Z,75.97
2019-05-20T19:48:59.586Z,70.13
2019-05-20T19:51:26.324Z,71.53
2019-05-20T19:53:54.345Z,71.13
2019-05-20T19:56:21.347Z,70.60
2019-05-20T19:58:48.054Z,71.97
2019-05-20T20:01:14.819Z,71.70
2019-05-20T20:03:43.255Z,63.70
2019-05-20T20:06:11.871Z,64.07
2019-05-20T20:08:38.729Z,64.87
2019-05-20T20:11:05.510Z,61.57
2019-05-20T20:13:34.442Z,57.83
2019-05-20T20:16:01.241Z,60.23
2019-05-20T20:18:27.894Z,57.07
2019-05-20T20:20:54.520Z,54.87
2019-05-20T20:23:22.564Z,58.07
2019-05-20T20:25:49.235Z,58.07
2019-05-20T20:28:15.968Z,57.47
2019-05-20T20:30:42.770Z,62.60
2019-05-20T20:33:09.503Z,59.97
2019-05-20T20:35:38.427Z,58.43
2019-05-20T20:38:05.276Z,65.03
2019-05-20T20:40:32.469Z,63.87
2019-05-20T20:42:59.274Z,62.57
2019-05-20T20:45:26.015Z,63.83
2019-05-20T20:47:52.871Z,60.93
2019-05-20T20:50:19.707Z,64.73
2019-05-20T20:52:46.374Z,58.73
2019-05-20T20:55:14.582Z,59.67
2019-05-20T20:57:41.315Z,63.60
2019-05-20T21:00:11.049Z,63.53
2019-05-20T21:02:52.102Z,63.30
2019-05-20T21:05:08.451Z,65.83
2019-05-20T21:07:35.276Z,67.57
2019-05-20T21:10:03.718Z,64.67
2019-05-20T21:12:30.676Z,64.43
2019-05-20T21:14:57.496Z,66.10
2019-05-20T21:17:24.158Z,66.13
2019-05-20T21:19:50.891Z,67.23
2019-05-20T21:22:19.452Z,65.97
2019-05-20T21:24:47.503Z,67.23
2019-05-20T21:27:14.288Z,69.90
2019-05-20T21:29:41.010Z,68.70
2019-05-20T21:32:07.673Z,65.47
2019-05-20T21:34:34.530Z,67.90
2019-05-20T21:37:01.439Z,68.17
2019-05-20T21:39:28.267Z,70.90
2019-05-20T21:41:54.985Z,68.43
2019-05-20T21:44:21.593Z,68.50
2019-05-20T21:46:48.731Z,69.13
2019-05-20T21:49:15.351Z,68.63
2019-05-20T21:51:42.225Z,69.30
2019-05-20T21:54:08.967Z,68.63
2019-05-20T21:56:35.711Z,71.23
2019-05-20T21:59:02.565Z,70.73
2019-05-20T22:01:30.002Z,74.53
2019-05-20T22:03:56.744Z,71.63
2019-05-20T22:06:23.509Z,75.50
2019-05-20T22:08:50.227Z,73.50
2019-05-20T22:11:17.007Z,78.93
2019-05-20T22:13:43.935Z,74.80
2019-05-20T22:16:10.667Z,73.10
2019-05-20T22:18:37.510Z,82.83
2019-05-20T22:21:05.134Z,78.30
2019-05-20T22:23:36.478Z,85.03
2019-05-20T22:26:03.272Z,82.30
2019-05-20T22:28:30.013Z,81.23
2019-05-20T22:30:56.640Z,85.47
2019-05-20T22:33:38.863Z,82.00
2019-05-20T22:35:54.155Z,82.17
2019-05-20T22:38:20.924Z,77.33
2019-05-20T22:40:47.550Z,78.57
2019-05-20T22:43:14.256Z,82.40
2019-05-20T22:45:41.074Z,88.23
2019-05-20T22:48:07.782Z,86.17
2019-05-20T22:50:34.476Z,82.00
2019-05-20T22:53:01.331Z,77.53
2019-05-20T22:55:28.185Z,76.27
2019-05-20T22:57:55.074Z,71.37
2019-05-20T23:00:22.141Z,76.30
2019-05-20T23:02:49.163Z,71.03
2019-05-20T23:05:15.941Z,79.63
2019-05-20T23:07:42.669Z,74.60
2019-05-20T23:10:10.195Z,76.67
2019-05-20T23:12:36.972Z,84.53
2019-05-20T23:15:07.124Z,88.07
2019-05-20T23:17:35.916Z,84.53
2019-05-20T23:20:05.898Z,84.27
2019-05-20T23:22:32.688Z,91.60
2019-05-20T23:24:59.354Z,93.70
2019-05-20T23:27:25.974Z,92.03
2019-05-20T23:29:53.446Z,94.83
2019-05-20T23:32:20.190Z,96.97
2019-05-20T23:34:46.826Z,94.43
2019-05-20T23:37:13.536Z,91.77
2019-05-20T23:39:40.353Z,92.00
2019-05-20T23:42:06.995Z,91.93
2019-05-20T23:44:33.639Z,91.07
2019-05-20T23:47:00.255Z,88.77
2019-05-20T23:49:26.899Z,86.87
2019-05-20T23:51:53.618Z,85.00
2019-05-20T23:54:20.371Z,79.80
2019-05-20T23:56:46.993Z,77.07
2019-05-20T23:59:13.636Z,70.40
